createdAt,value
2022-08-09T00:01:52.523Z,12.49
2022-08-09T00:04:03.473Z,12.44
2022-08-09T00:06:30.174Z,12.44
2022-08-09T00:09:00.537Z,12.41
2022-08-09T00:12:03.220Z,12.40
2022-08-09T00:14:00.385Z,12.39
2022-08-09T00:16:36.494Z,12.38
2022-08-09T00:18:59.641Z,12.32
2022-08-09T00:21:28.446Z,12.29
2022-08-09T00:24:00.048Z,12.26
2022-08-09T00:26:33.273Z,12.24
2022-08-09T00:29:01.612Z,12.23
2022-08-09T00:31:58.704Z,12.15
2022-08-09T00:34:01.281Z,12.15
2022-08-09T00:36:31.659Z,12.13
2022-08-09T00:39:00.448Z,12.08
2022-08-09T00:44:14.660Z,11.99
2022-08-09T00:44:19.800Z,12.08
2022-08-09T00:46:45.293Z,12.03
2022-08-09T00:49:00.413Z,12.03
2022-08-09T00:51:34.071Z,12.01
2022-08-09T00:54:00.249Z,11.98
2022-08-09T00:56:30.686Z,11.97
2022-08-09T00:58:59.492Z,11.91
2022-08-09T01:01:44.334Z,11.94
2022-08-09T01:04:07.983Z,11.93
2022-08-09T01:06:54.531Z,11.92
2022-08-09T01:09:35.908Z,11.90
2022-08-09T01:12:15.747Z,11.90
2022-08-09T01:14:48.266Z,11.88
2022-08-09T01:17:20.209Z,11.89
2022-08-09T01:20:02.721Z,11.89
2022-08-09T01:22:38.049Z,11.86
2022-08-09T01:25:25.071Z,11.88
2022-08-09T01:27:57.111Z,11.88
2022-08-09T01:30:28.858Z,11.87
2022-08-09T01:32:58.639Z,11.86
2022-08-09T01:35:38.486Z,11.89
2022-08-09T01:38:08.265Z,11.92
2022-08-09T01:40:35.671Z,11.93
2022-08-09T01:43:05.348Z,11.93
2022-08-09T01:45:46.058Z,11.92
2022-08-09T01:48:07.920Z,11.96
2022-08-09T01:50:42.071Z,11.96
2022-08-09T01:53:19.294Z,11.96
2022-08-09T01:55:41.117Z,11.97
2022-08-09T01:58:11.054Z,11.97
2022-08-09T02:00:41.923Z,11.99
2022-08-09T02:03:13.790Z,11.99
2022-08-09T02:06:03.746Z,12.01
2022-08-09T02:08:38.948Z,12.05
2022-08-09T02:10:51.024Z,12.07
2022-08-09T02:13:20.428Z,12.08
2022-08-09T02:15:52.170Z,12.11
2022-08-09T02:18:23.602Z,12.13
2022-08-09T02:20:54.019Z,12.16
2022-08-09T02:23:24.271Z,12.18
2022-08-09T02:25:55.776Z,12.19
2022-08-09T02:28:35.669Z,12.23
2022-08-09T02:31:06.253Z,12.31
2022-08-09T02:33:38.296Z,12.32
2022-08-09T02:36:11.610Z,12.37
2022-08-09T02:38:42.095Z,12.39
2022-08-09T02:41:14.319Z,12.39
2022-08-09T02:43:54.784Z,12.41
2022-08-09T02:46:17.484Z,12.45
2022-08-09T02:48:47.700Z,12.47
2022-08-09T02:51:19.884Z,12.47
2022-08-09T02:53:59.606Z,12.50
2022-08-09T02:56:23.238Z,12.48
2022-08-09T02:58:53.257Z,12.47
2022-08-09T03:01:29.674Z,12.44
2022-08-09T03:04:17.597Z,12.38
2022-08-09T03:06:27.405Z,12.59
2022-08-09T03:08:58.824Z,12.83
2022-08-09T03:12:04.586Z,12.67
2022-08-09T03:14:01.775Z,12.55
2022-08-09T03:16:30.155Z,12.52
2022-08-09T03:19:01.784Z,12.56
2022-08-09T03:21:36.583Z,12.56
2022-08-09T03:24:04.378Z,12.61
2022-08-09T03:26:32.344Z,12.58
2022-08-09T03:29:01.868Z,12.65
2022-08-09T03:31:32.283Z,12.70
2022-08-09T03:34:14.127Z,12.73
2022-08-09T03:36:43.016Z,12.73
2022-08-09T03:39:13.517Z,12.74
2022-08-09T03:41:45.816Z,12.79
2022-08-09T03:44:15.464Z,12.85
2022-08-09T03:46:44.572Z,12.83
2022-08-09T03:49:19.071Z,12.87
2022-08-09T03:51:58.685Z,12.91
2022-08-09T03:54:29.364Z,12.99
2022-08-09T03:56:52.456Z,13.05
2022-08-09T03:59:27.109Z,13.06
2022-08-09T04:01:53.782Z,13.11
2022-08-09T04:04:24.601Z,13.23
2022-08-09T04:06:53.558Z,13.29
2022-08-09T04:09:44.555Z,13.33
2022-08-09T04:11:56.764Z,13.34
2022-08-09T04:14:53.615Z,13.32
2022-08-09T04:16:57.409Z,13.34
2022-08-09T04:19:42.632Z,13.43
2022-08-09T04:21:58.255Z,13.47
2022-08-09T04:24:27.073Z,13.36
2022-08-09T04:26:55.835Z,13.52
2022-08-09T04:29:25.041Z,13.57
2022-08-09T04:31:57.948Z,13.63
2022-08-09T04:34:31.700Z,13.69
2022-08-09T04:36:57.463Z,13.78
2022-08-09T04:39:30.853Z,13.75
2022-08-09T04:41:57.557Z,13.80
2022-08-09T04:44:28.941Z,13.94
2022-08-09T04:47:04.324Z,13.97
2022-08-09T04:49:53.906Z,14.01
2022-08-09T04:52:01.200Z,14.08
2022-08-09T04:54:30.640Z,13.98
2022-08-09T04:57:00.278Z,14.13
2022-08-09T04:59:30.636Z,14.26
2022-08-09T05:02:02.927Z,14.29
2022-08-09T05:04:31.069Z,14.37
2022-08-09T05:07:00.317Z,14.46
2022-08-09T05:09:42.192Z,14.57
2022-08-09T05:12:01.143Z,14.73
2022-08-09T05:14:31.549Z,14.89
2022-08-09T05:17:02.192Z,15.01
2022-08-09T05:19:31.731Z,15.08
2022-08-09T05:22:01.399Z,15.18
2022-08-09T05:24:30.210Z,15.22
2022-08-09T05:26:58.932Z,15.33
2022-08-09T05:29:31.543Z,15.51
2022-08-09T05:32:02.674Z,15.70
2022-08-09T05:34:34.225Z,15.84
2022-08-09T05:37:06.059Z,15.97
2022-08-09T05:39:36.080Z,16.09
2022-08-09T05:42:06.229Z,16.16
2022-08-09T05:44:35.895Z,16.29
2022-08-09T05:47:05.494Z,16.50
2022-08-09T05:50:16.776Z,16.62
2022-08-09T05:52:05.339Z,16.65
2022-08-09T05:54:34.108Z,16.78
2022-08-09T05:57:02.814Z,16.92
2022-08-09T05:59:33.310Z,17.05
2022-08-09T06:02:02.241Z,17.09
2022-08-09T06:04:44.564Z,17.28
2022-08-09T06:07:09.403Z,17.33
2022-08-09T06:09:54.577Z,17.43
2022-08-09T06:12:09.023Z,17.53
2022-08-09T06:14:37.949Z,17.68
2022-08-09T06:17:09.779Z,17.64
2022-08-09T06:19:37.049Z,17.72
2022-08-09T06:22:06.698Z,17.66
2022-08-09T06:24:37.057Z,17.78
2022-08-09T06:27:07.411Z,17.93
2022-08-09T06:29:48.016Z,18.04
2022-08-09T06:32:08.990Z,18.14
2022-08-09T06:34:37.903Z,18.18
2022-08-09T06:37:08.099Z,18.23
2022-08-09T06:39:48.163Z,18.37
2022-08-09T06:42:08.811Z,18.45
2022-08-09T06:44:37.867Z,18.54
2022-08-09T06:47:08.421Z,18.62
2022-08-09T06:50:12.016Z,18.64
2022-08-09T06:52:07.770Z,18.79
2022-08-09T06:54:36.703Z,18.78
2022-08-09T06:57:07.031Z,18.81
2022-08-09T07:00:57.038Z,18.88
2022-08-09T07:02:07.545Z,18.93
2022-08-09T07:04:37.653Z,19.08
2022-08-09T07:07:06.440Z,19.17
2022-08-09T07:09:55.405Z,19.22
2022-08-09T07:12:07.496Z,19.33
2022-08-09T07:14:38.068Z,19.42
2022-08-09T07:17:08.106Z,19.52
2022-08-09T07:19:37.051Z,19.59
2022-08-09T07:22:07.100Z,19.44
2022-08-09T07:24:40.200Z,19.56
2022-08-09T07:27:23.900Z,19.70
2022-08-09T07:29:42.573Z,19.77
2022-08-09T07:32:09.894Z,19.83
2022-08-09T07:34:38.619Z,19.93
2022-08-09T07:37:15.525Z,19.90
2022-08-09T07:39:41.291Z,19.94
2022-08-09T07:42:10.062Z,20.10
2022-08-09T07:44:51.852Z,20.15
2022-08-09T07:47:09.920Z,20.29
2022-08-09T07:50:04.485Z,20.45
2022-08-09T07:52:17.051Z,20.31
2022-08-09T07:54:41.029Z,20.39
2022-08-09T07:57:11.608Z,20.47
2022-08-09T07:59:51.962Z,20.42
2022-08-09T08:02:10.881Z,20.55
2022-08-09T08:04:41.767Z,20.68
2022-08-09T08:08:05.956Z,20.71
2022-08-09T08:09:51.496Z,20.80
2022-08-09T08:12:28.305Z,20.98
2022-08-09T08:17:52.398Z,20.99
2022-08-09T08:19:57.041Z,20.98
2022-08-09T08:22:30.019Z,21.00
2022-08-09T08:24:57.530Z,21.22
2022-08-09T08:27:27.041Z,21.25
2022-08-09T08:29:57.457Z,21.34
2022-08-09T08:32:28.987Z,21.45
2022-08-09T08:34:58.897Z,21.45
2022-08-09T08:37:41.700Z,21.67
2022-08-09T08:40:00.143Z,21.87
2022-08-09T08:42:32.137Z,21.95
2022-08-09T08:45:00.925Z,21.83
2022-08-09T08:47:31.410Z,21.92
2022-08-09T08:50:02.809Z,21.74
2022-08-09T08:55:03.891Z,21.74
2022-08-09T08:57:35.299Z,21.95
2022-08-09T09:00:07.854Z,22.02
2022-08-09T09:02:35.733Z,22.26
2022-08-09T09:05:06.070Z,22.24
2022-08-09T09:07:36.721Z,22.14
2022-08-09T09:10:08.898Z,22.38
2022-08-09T09:12:38.295Z,22.45
2022-08-09T09:15:07.555Z,22.45
2022-08-09T09:17:49.212Z,22.64
2022-08-09T09:20:09.225Z,22.80
2022-08-09T09:22:53.276Z,22.98
2022-08-09T09:26:03.316Z,23.05
2022-08-09T09:28:08.030Z,22.99
2022-08-09T09:30:40.734Z,23.26
2022-08-09T09:33:14.379Z,23.52
2022-08-09T09:36:02.277Z,23.72
2022-08-09T09:38:36.282Z,23.72
2022-08-09T09:40:55.079Z,23.82
2022-08-09T09:43:25.039Z,23.97
2022-08-09T09:46:38.866Z,24.26
2022-08-09T09:48:25.607Z,24.52
2022-08-09T09:50:55.151Z,24.82
2022-08-09T09:53:43.799Z,25.02
2022-08-09T09:56:04.382Z,25.33
2022-08-09T09:58:49.091Z,25.44
2022-08-09T10:01:31.508Z,25.36
2022-08-09T10:03:57.151Z,25.33
2022-08-09T10:06:22.199Z,25.47
2022-08-09T10:08:54.802Z,25.29
2022-08-09T10:12:00.703Z,25.44
2022-08-09T10:13:54.773Z,26.18
2022-08-09T10:16:57.029Z,26.09
2022-08-09T10:19:04.360Z,26.48
2022-08-09T10:21:33.639Z,26.63
2022-08-09T10:24:04.672Z,27.12
2022-08-09T10:26:33.677Z,27.00
2022-08-09T10:29:31.694Z,26.44
2022-08-09T10:34:10.318Z,26.44
2022-08-09T10:36:35.542Z,26.46
2022-08-09T10:39:13.913Z,26.10
2022-08-09T10:41:36.533Z,26.79
2022-08-09T10:44:05.531Z,26.72
2022-08-09T10:46:57.376Z,26.59
2022-08-09T10:49:42.299Z,26.82
2022-08-09T10:52:13.554Z,26.92
2022-08-09T10:54:42.598Z,27.21
2022-08-09T10:57:15.947Z,27.09
2022-08-09T10:59:57.597Z,27.43
2022-08-09T11:03:14.871Z,26.98
2022-08-09T11:04:56.307Z,27.49
2022-08-09T11:07:22.766Z,27.29
2022-08-09T11:09:52.844Z,27.10
2022-08-09T11:12:30.232Z,26.16
2022-08-09T11:15:02.885Z,26.98
2022-08-09T11:17:34.531Z,26.80
2022-08-09T11:20:20.030Z,27.43
2022-08-09T11:22:44.966Z,27.60
2022-08-09T11:25:17.647Z,26.79
2022-08-09T11:28:04.977Z,26.89
2022-08-09T11:30:32.542Z,27.90
2022-08-09T11:33:02.120Z,26.64
2022-08-09T11:35:50.241Z,28.01
2022-08-09T11:38:32.665Z,27.67
2022-08-09T11:40:56.054Z,27.62
2022-08-09T11:43:32.390Z,27.88
2022-08-09T11:46:02.934Z,28.08
2022-08-09T11:48:32.818Z,28.16
2022-08-09T11:52:48.842Z,28.16
2022-08-09T11:53:58.799Z,28.44
2022-08-09T11:56:20.055Z,27.82
2022-08-09T11:58:50.211Z,27.89
2022-08-09T12:02:18.043Z,27.81
2022-08-09T12:03:56.638Z,28.08
2022-08-09T12:06:26.807Z,27.82
2022-08-09T12:08:54.054Z,27.83
2022-08-09T12:11:24.407Z,28.14
2022-08-09T12:14:07.101Z,28.06
2022-08-09T12:16:38.505Z,28.40
2022-08-09T12:19:03.978Z,28.57
2022-08-09T12:21:38.839Z,28.87
2022-08-09T12:24:10.164Z,29.07
2022-08-09T12:26:40.695Z,28.69
2022-08-09T12:29:30.022Z,28.94
2022-08-09T12:31:59.013Z,29.11
2022-08-09T12:34:14.238Z,28.45
2022-08-09T12:36:58.882Z,28.53
2022-08-09T12:39:24.749Z,28.36
2022-08-09T12:41:55.486Z,28.45
2022-08-09T12:44:26.273Z,27.95
2022-08-09T12:46:56.689Z,28.23
2022-08-09T12:49:25.777Z,28.42
2022-08-09T12:52:02.479Z,28.96
2022-08-09T12:54:26.946Z,27.48
2022-08-09T12:56:55.726Z,27.66
2022-08-09T12:59:57.974Z,28.01
2022-08-09T13:02:00.868Z,28.14
2022-08-09T13:04:36.668Z,28.61
2022-08-09T13:07:02.091Z,28.02
2022-08-09T13:09:30.865Z,28.50
2022-08-09T13:12:02.994Z,28.45
2022-08-09T13:14:41.697Z,28.01
2022-08-09T13:17:04.716Z,28.02
2022-08-09T13:20:10.403Z,28.64
2022-08-09T13:22:37.898Z,29.08
2022-08-09T13:24:53.116Z,29.02
2022-08-09T13:27:26.633Z,28.61
2022-08-09T13:30:03.850Z,28.30
2022-08-09T13:32:46.373Z,28.09
2022-08-09T13:35:18.824Z,28.36
2022-08-09T13:37:52.255Z,28.39
2022-08-09T13:41:54.256Z,28.05
2022-08-09T13:42:49.895Z,27.89
2022-08-09T13:45:19.240Z,28.00
2022-08-09T13:47:52.684Z,28.71
2022-08-09T13:50:31.268Z,28.46
2022-08-09T13:52:50.011Z,28.34
2022-08-09T13:55:21.025Z,28.51
2022-08-09T13:57:56.259Z,28.44
2022-08-09T14:00:20.795Z,28.28
2022-08-09T14:03:03.635Z,27.91
2022-08-09T14:06:00.247Z,27.02
2022-08-09T14:07:51.760Z,26.99
2022-08-09T14:10:37.431Z,26.50
2022-08-09T14:12:52.468Z,26.25
2022-08-09T14:16:10.491Z,26.09
2022-08-09T14:18:06.448Z,25.72
2022-08-09T14:20:24.775Z,25.49
2022-08-09T14:22:52.476Z,25.56
2022-08-09T14:25:22.801Z,25.61
2022-08-09T14:27:56.918Z,25.53
2022-08-09T14:30:36.360Z,25.12
2022-08-09T14:32:52.343Z,25.33
2022-08-09T14:35:22.122Z,25.38
2022-08-09T14:38:02.093Z,25.47
2022-08-09T14:40:38.781Z,25.68
2022-08-09T14:42:52.456Z,24.87
2022-08-09T14:46:54.753Z,25.32
2022-08-09T14:47:58.009Z,25.23
2022-08-09T14:50:22.541Z,25.17
2022-08-09T14:52:52.858Z,25.19
2022-08-09T14:55:23.189Z,25.14
2022-08-09T14:57:51.945Z,25.14
2022-08-09T15:00:22.349Z,25.35
2022-08-09T15:02:52.338Z,25.46
2022-08-09T15:05:21.549Z,25.61
2022-08-09T15:07:54.883Z,25.52
2022-08-09T15:10:21.860Z,25.67
2022-08-09T15:12:52.207Z,25.63
2022-08-09T15:15:21.292Z,25.56
2022-08-09T15:17:52.793Z,25.81
2022-08-09T15:21:55.920Z,26.01
2022-08-09T15:22:59.853Z,26.23
2022-08-09T15:25:39.055Z,26.23
2022-08-09T15:27:54.971Z,26.44
2022-08-09T15:30:56.256Z,26.38
2022-08-09T15:32:55.987Z,26.64
2022-08-09T15:35:44.235Z,26.67
2022-08-09T15:38:11.771Z,26.69
2022-08-09T15:40:32.032Z,26.52
2022-08-09T15:42:57.713Z,26.50
2022-08-09T15:45:29.381Z,26.50
2022-08-09T15:48:05.388Z,26.40
2022-08-09T15:50:28.921Z,26.01
2022-08-09T15:53:06.012Z,26.33
2022-08-09T15:55:29.235Z,26.05
2022-08-09T15:57:59.604Z,26.04
2022-08-09T16:00:30.238Z,25.84
2022-08-09T16:02:59.746Z,25.62
2022-08-09T16:05:36.284Z,25.49
2022-08-09T16:08:01.636Z,25.87
2022-08-09T16:10:55.964Z,25.89
2022-08-09T16:13:03.113Z,25.85
2022-08-09T16:16:04.454Z,25.83
2022-08-09T16:18:03.985Z,25.83
2022-08-09T16:20:32.755Z,25.65
2022-08-09T16:23:01.583Z,25.86
2022-08-09T16:25:40.458Z,25.69
2022-08-09T16:28:02.322Z,25.53
2022-08-09T16:30:32.732Z,25.13
2022-08-09T16:33:11.275Z,25.45
2022-08-09T16:35:56.122Z,25.27
2022-08-09T16:38:11.449Z,24.94
2022-08-09T16:40:41.386Z,24.75
2022-08-09T16:43:10.375Z,25.14
2022-08-09T16:45:44.193Z,24.95
2022-08-09T16:48:38.747Z,24.84
2022-08-09T16:50:41.051Z,25.14
2022-08-09T16:53:11.868Z,24.91
2022-08-09T16:56:00.102Z,24.99
2022-08-09T16:58:11.821Z,25.05
2022-08-09T17:00:42.831Z,25.07
2022-08-09T17:03:21.643Z,24.87
2022-08-09T17:06:07.079Z,24.85
2022-08-09T17:08:44.819Z,24.68
2022-08-09T17:10:43.199Z,24.80
2022-08-09T17:13:13.496Z,24.80
2022-08-09T17:15:59.802Z,24.77
2022-08-09T17:18:13.489Z,24.73
2022-08-09T17:20:52.471Z,24.31
2022-08-09T17:23:15.030Z,24.26
2022-08-09T17:25:45.180Z,24.30
2022-08-09T17:28:15.638Z,24.31
2022-08-09T17:30:47.566Z,24.36
2022-08-09T17:33:21.918Z,24.29
2022-08-09T17:35:46.721Z,24.30
2022-08-09T17:38:29.297Z,24.24
2022-08-09T17:40:47.298Z,24.10
2022-08-09T17:43:33.790Z,24.07
2022-08-09T17:46:04.029Z,23.85
2022-08-09T17:48:16.926Z,23.74
2022-08-09T17:50:48.488Z,23.64
2022-08-09T17:53:21.767Z,23.53
2022-08-09T17:55:48.683Z,23.43
2022-08-09T17:58:18.424Z,23.27
2022-08-09T18:00:48.234Z,23.11
2022-08-09T18:03:17.948Z,22.93
2022-08-09T18:05:52.941Z,22.81
2022-08-09T18:08:17.664Z,22.65
2022-08-09T18:11:01.835Z,22.47
2022-08-09T18:13:43.649Z,22.29
2022-08-09T18:16:05.380Z,22.14
2022-08-09T18:18:25.861Z,21.99
2022-08-09T18:20:56.513Z,21.76
2022-08-09T18:24:12.198Z,21.56
2022-08-09T18:25:57.499Z,21.32
2022-08-09T18:30:42.520Z,21.15
2022-08-09T18:30:51.173Z,21.00
2022-08-09T18:33:23.000Z,20.84
2022-08-09T18:35:59.312Z,20.63
2022-08-09T18:38:20.779Z,20.51
2022-08-09T18:40:52.569Z,20.43
2022-08-09T18:43:21.623Z,20.33
2022-08-09T18:46:49.263Z,20.14
2022-08-09T18:48:22.589Z,20.04
2022-08-09T18:50:53.080Z,19.91
2022-08-09T18:53:22.422Z,19.74
2022-08-09T18:55:56.399Z,19.65
2022-08-09T18:58:32.250Z,19.57
2022-08-09T19:00:54.930Z,19.47
2022-08-09T19:03:25.325Z,19.34
2022-08-09T19:06:02.840Z,19.23
2022-08-09T19:08:28.016Z,19.15
2022-08-09T19:10:55.844Z,19.02
2022-08-09T19:13:38.521Z,18.91
2022-08-09T19:15:56.620Z,18.86
2022-08-09T19:18:34.216Z,18.79
2022-08-09T19:20:56.941Z,18.64
2022-08-09T19:24:39.577Z,18.51
2022-08-09T19:26:02.033Z,18.38
2022-08-09T19:28:28.850Z,18.29
2022-08-09T19:30:57.747Z,18.26
2022-08-09T19:33:27.428Z,18.19
2022-08-09T19:35:58.003Z,18.03
2022-08-09T19:38:27.240Z,17.91
2022-08-09T19:41:00.463Z,17.81
2022-08-09T19:44:00.698Z,17.79
2022-08-09T19:45:59.951Z,17.71
2022-08-09T19:49:02.519Z,17.72
2022-08-09T19:51:00.851Z,17.63
2022-08-09T19:53:29.825Z,17.47
2022-08-09T19:56:03.024Z,17.41
2022-08-09T19:58:30.769Z,17.39
2022-08-09T20:01:01.582Z,17.37
2022-08-09T20:04:10.799Z,17.35
2022-08-09T20:06:03.184Z,17.38
2022-08-09T20:08:34.861Z,17.47
2022-08-09T20:11:04.483Z,17.51
2022-08-09T20:13:37.232Z,17.55
2022-08-09T20:18:41.048Z,17.14
2022-08-09T20:21:11.764Z,16.82
2022-08-09T20:23:41.285Z,16.65
2022-08-09T20:26:15.453Z,16.65
2022-08-09T20:28:48.079Z,16.63
2022-08-09T20:31:13.854Z,16.59
2022-08-09T20:33:44.707Z,16.55
2022-08-09T20:36:14.378Z,16.51
2022-08-09T20:39:18.655Z,16.46
2022-08-09T20:41:15.276Z,16.43
2022-08-09T20:43:45.502Z,16.34
2022-08-09T20:46:43.345Z,16.27
2022-08-09T20:48:46.193Z,16.19
2022-08-09T20:51:19.221Z,16.12
2022-08-09T20:53:45.792Z,16.10
2022-08-09T20:56:20.767Z,16.07
2022-08-09T20:58:46.917Z,16.03
2022-08-09T21:01:34.867Z,16.01
2022-08-09T21:05:51.031Z,15.98
2022-08-09T21:06:19.051Z,15.92
2022-08-09T21:08:50.870Z,15.82
2022-08-09T21:14:00.083Z,15.88
2022-08-09T21:16:22.386Z,15.92
2022-08-09T21:19:48.492Z,15.87
2022-08-09T21:21:23.693Z,15.86
2022-08-09T21:23:57.819Z,15.92
2022-08-09T21:26:24.443Z,15.93
2022-08-09T21:28:56.868Z,15.93
2022-08-09T21:31:23.863Z,15.97
2022-08-09T21:33:56.726Z,16.00
2022-08-09T21:36:28.690Z,16.03
2022-08-09T21:38:58.049Z,15.99
2022-08-09T21:42:06.059Z,15.99
2022-08-09T21:43:58.356Z,15.92
2022-08-09T21:46:27.998Z,15.93
2022-08-09T21:48:58.431Z,15.88
2022-08-09T21:51:35.891Z,15.87
2022-08-09T21:53:58.004Z,15.85
2022-08-09T21:56:32.825Z,15.77
2022-08-09T21:58:59.651Z,15.68
2022-08-09T22:01:59.056Z,15.62
2022-08-09T22:03:59.385Z,15.57
2022-08-09T22:06:28.810Z,15.56
2022-08-09T22:08:58.149Z,15.48
2022-08-09T22:12:06.059Z,15.38
2022-08-09T22:13:57.933Z,15.35
2022-08-09T22:16:27.471Z,15.29
2022-08-09T22:18:58.223Z,15.20
2022-08-09T22:21:45.073Z,15.19
2022-08-09T22:24:01.438Z,15.21
2022-08-09T22:26:34.936Z,15.23
2022-08-09T22:29:06.803Z,15.27
2022-08-09T22:31:32.479Z,15.26
2022-08-09T22:34:02.397Z,15.27
2022-08-09T22:36:37.388Z,15.19
2022-08-09T22:39:01.536Z,15.13
2022-08-09T22:41:30.272Z,15.10
2022-08-09T22:44:02.336Z,14.83
2022-08-09T22:48:13.622Z,14.90
2022-08-09T22:49:01.776Z,14.89
2022-08-09T22:51:30.916Z,14.90
2022-08-09T22:54:02.953Z,14.91
2022-08-09T22:56:33.907Z,14.91
2022-08-09T22:59:00.457Z,14.92
2022-08-09T23:01:29.247Z,14.87
2022-08-09T23:04:03.532Z,14.80
2022-08-09T23:06:36.159Z,14.80
2022-08-09T23:09:01.330Z,14.79
2022-08-09T23:11:30.952Z,14.81
2022-08-09T23:13:59.717Z,14.86
2022-08-09T23:16:28.561Z,14.87
2022-08-09T23:18:57.459Z,14.92
2022-08-09T23:21:31.316Z,14.95
2022-08-09T23:24:05.647Z,14.97
2022-08-09T23:26:27.201Z,15.01
2022-08-09T23:28:56.054Z,15.04
2022-08-09T23:31:24.799Z,15.08
2022-08-09T23:33:53.598Z,15.11
2022-08-09T23:36:22.378Z,15.14
2022-08-09T23:38:52.126Z,15.16
2022-08-09T23:41:27.919Z,15.15
2022-08-09T23:43:51.547Z,15.13
2022-08-09T23:46:22.801Z,15.14
2022-08-09T23:48:51.976Z,15.14
2022-08-09T23:51:20.878Z,15.14
2022-08-09T23:53:50.610Z,15.08
2022-08-09T23:56:39.424Z,15.08
2022-08-09T23:58:51.864Z,15.04
